N30KE KONT-KSAN
Flight info
| Callsign | N30KE |
|---|---|
| Flight time | 0h 30m |
| Altitude | 11000 |
| Route | NIKKL1 MZB |
| Aircraft | CL60/M-SBDE1E2E3FGHIJ1J4J5J7M3RWXYZ/LB1V1D1 |
Departure
| Time | 2026-05-08 23:12 |
|---|---|
| Airport | Ontario International Airport (KONT) |
Arrival
| Time | 2026-05-08 23:42 |
|---|---|
| Airport | San Diego International Airport (KSAN) |
| Time | Latitude | Longitude | Altitude | Speed | Heading |
|---|---|---|---|---|---|
| 2026-05-08 22:38 | 34.05187 | -117.61210 | 961 ft | 0 kts | 179° |
| 2026-05-08 22:59 | 34.05180 | -117.61220 | 962 ft | 3 kts | 263° |
| 2026-05-08 23:00 | 34.05192 | -117.61263 | 962 ft | 7 kts | 309° |
| 2026-05-08 23:00 | 34.05253 | -117.61282 | 962 ft | 11 kts | 2° |
| 2026-05-08 23:00 | 34.05342 | -117.61282 | 962 ft | 14 kts | 360° |
| 2026-05-08 23:00 | 34.05387 | -117.61212 | 962 ft | 13 kts | 90° |
| 2026-05-08 23:01 | 34.05387 | -117.61083 | 962 ft | 17 kts | 90° |
| 2026-05-08 23:01 | 34.05387 | -117.60920 | 962 ft | 21 kts | 90° |
| 2026-05-08 23:01 | 34.05387 | -117.60725 | 962 ft | 25 kts | 89° |
| 2026-05-08 23:01 | 34.05386 | -117.60504 | 962 ft | 28 kts | 90° |
| 2026-05-08 23:02 | 34.05387 | -117.60263 | 962 ft | 29 kts | 90° |
| 2026-05-08 23:02 | 34.05387 | -117.60017 | 962 ft | 30 kts | 90° |
| 2026-05-08 23:02 | 34.05387 | -117.59751 | 962 ft | 33 kts | 89° |
| 2026-05-08 23:02 | 34.05387 | -117.59476 | 962 ft | 27 kts | 94° |
| 2026-05-08 23:03 | 34.05388 | -117.59242 | 962 ft | 29 kts | 90° |
| 2026-05-08 23:03 | 34.05388 | -117.58987 | 962 ft | 31 kts | 90° |
| 2026-05-08 23:03 | 34.05388 | -117.58721 | 962 ft | 27 kts | 91° |
| 2026-05-08 23:03 | 34.05388 | -117.58484 | 962 ft | 19 kts | 89° |
| 2026-05-08 23:04 | 34.05388 | -117.58334 | 962 ft | 4 kts | 89° |
| 2026-05-08 23:04 | 34.05400 | -117.58287 | 962 ft | 0 kts | 45° |
| 2026-05-08 23:04 | 34.05400 | -117.58288 | 962 ft | 0 kts | 45° |
| 2026-05-08 23:10 | 34.05403 | -117.58284 | 962 ft | 2 kts | 41° |
| 2026-05-08 23:10 | 34.05436 | -117.58271 | 962 ft | 7 kts | 360° |
| 2026-05-08 23:11 | 34.05494 | -117.58276 | 962 ft | 7 kts | 326° |
| 2026-05-08 23:11 | 34.05500 | -117.58304 | 962 ft | 7 kts | 268° |
| 2026-05-08 23:11 | 34.05497 | -117.58744 | 963 ft | 97 kts | 270° |
| 2026-05-08 23:11 | 34.05495 | -117.59816 | 1081 ft | 151 kts | 268° |
| 2026-05-08 23:12 | 34.05480 | -117.61127 | 1720 ft | 163 kts | 268° |
| 2026-05-08 23:12 | 34.05471 | -117.62571 | 2267 ft | 190 kts | 269° |
| 2026-05-08 23:12 | 34.05452 | -117.64224 | 3145 ft | 203 kts | 269° |
| 2026-05-08 23:12 | 34.05418 | -117.65937 | 4126 ft | 211 kts | 269° |
| 2026-05-08 23:13 | 34.05376 | -117.67800 | 4719 ft | 241 kts | 269° |
| 2026-05-08 23:13 | 34.05329 | -117.69896 | 5361 ft | 264 kts | 269° |
| 2026-05-08 23:13 | 34.04960 | -117.72091 | 6261 ft | 276 kts | 245° |
| 2026-05-08 23:13 | 34.03761 | -117.73917 | 6776 ft | 287 kts | 218° |
| 2026-05-08 23:14 | 34.01878 | -117.74867 | 7167 ft | 304 kts | 186° |
| 2026-05-08 23:14 | 33.99821 | -117.74443 | 8677 ft | 304 kts | 154° |
| 2026-05-08 23:14 | 33.98236 | -117.72980 | 10319 ft | 298 kts | 133° |
| 2026-05-08 23:14 | 33.97012 | -117.70967 | 11271 ft | 303 kts | 116° |
| 2026-05-08 23:15 | 33.96245 | -117.68606 | 11663 ft | 306 kts | 108° |
| 2026-05-08 23:15 | 33.95549 | -117.66097 | 10943 ft | 314 kts | 108° |
| 2026-05-08 23:15 | 33.94872 | -117.63710 | 11045 ft | 294 kts | 108° |
| 2026-05-08 23:15 | 33.94214 | -117.61401 | 10991 ft | 293 kts | 108° |
| 2026-05-08 23:16 | 33.93508 | -117.58917 | 10987 ft | 334 kts | 108° |
| 2026-05-08 23:16 | 33.92733 | -117.56200 | 10983 ft | 355 kts | 108° |
| 2026-05-08 23:16 | 33.91636 | -117.53495 | 10995 ft | 358 kts | 124° |
| 2026-05-08 23:16 | 33.89871 | -117.51344 | 11008 ft | 360 kts | 142° |
| 2026-05-08 23:17 | 33.87823 | -117.49616 | 10999 ft | 360 kts | 144° |
| 2026-05-08 23:17 | 33.85766 | -117.47890 | 11006 ft | 360 kts | 144° |
| 2026-05-08 23:17 | 33.83687 | -117.46136 | 11007 ft | 360 kts | 144° |
| 2026-05-08 23:17 | 33.81641 | -117.44412 | 11014 ft | 361 kts | 144° |
| 2026-05-08 23:18 | 33.79562 | -117.42664 | 11020 ft | 361 kts | 144° |
| 2026-05-08 23:18 | 33.77490 | -117.40923 | 11024 ft | 361 kts | 144° |
| 2026-05-08 23:18 | 33.75416 | -117.39183 | 11014 ft | 362 kts | 144° |
| 2026-05-08 23:18 | 33.73347 | -117.37448 | 11020 ft | 361 kts | 144° |
| 2026-05-08 23:19 | 33.71279 | -117.35717 | 11042 ft | 362 kts | 144° |
| 2026-05-08 23:19 | 33.69201 | -117.33979 | 11015 ft | 362 kts | 144° |
| 2026-05-08 23:19 | 33.67134 | -117.32252 | 11005 ft | 361 kts | 144° |
| 2026-05-08 23:19 | 33.65078 | -117.30535 | 11024 ft | 362 kts | 144° |
| 2026-05-08 23:20 | 33.62991 | -117.28793 | 11030 ft | 363 kts | 144° |
| 2026-05-08 23:20 | 33.60926 | -117.27072 | 11003 ft | 362 kts | 144° |
| 2026-05-08 23:20 | 33.58854 | -117.25346 | 11001 ft | 362 kts | 144° |
| 2026-05-08 23:20 | 33.56783 | -117.23622 | 11023 ft | 362 kts | 144° |
| 2026-05-08 23:21 | 33.54702 | -117.21891 | 11014 ft | 362 kts | 144° |
| 2026-05-08 23:21 | 33.52657 | -117.20190 | 11027 ft | 362 kts | 144° |
| 2026-05-08 23:21 | 33.50584 | -117.18468 | 11007 ft | 362 kts | 144° |
| 2026-05-08 23:21 | 33.48444 | -117.16778 | 11048 ft | 363 kts | 151° |
| 2026-05-08 23:22 | 33.46079 | -117.15775 | 11029 ft | 364 kts | 168° |
| 2026-05-08 23:22 | 33.43570 | -117.15233 | 10997 ft | 363 kts | 169° |
| 2026-05-08 23:22 | 33.41057 | -117.14693 | 11016 ft | 363 kts | 169° |
| 2026-05-08 23:22 | 33.38557 | -117.14155 | 11010 ft | 364 kts | 169° |
| 2026-05-08 23:23 | 33.36079 | -117.13623 | 11001 ft | 363 kts | 169° |
| 2026-05-08 23:23 | 33.33577 | -117.13088 | 10985 ft | 364 kts | 169° |
| 2026-05-08 23:23 | 33.31075 | -117.12553 | 11009 ft | 363 kts | 169° |
| 2026-05-08 23:23 | 33.28589 | -117.12022 | 10996 ft | 364 kts | 169° |
| 2026-05-08 23:24 | 33.26107 | -117.11494 | 10985 ft | 362 kts | 169° |
| 2026-05-08 23:24 | 33.23586 | -117.10957 | 11001 ft | 363 kts | 169° |
| 2026-05-08 23:24 | 33.21107 | -117.10432 | 11001 ft | 363 kts | 169° |
| 2026-05-08 23:24 | 33.18593 | -117.09898 | 11002 ft | 363 kts | 169° |
| 2026-05-08 23:25 | 33.16098 | -117.09370 | 11009 ft | 363 kts | 169° |
| 2026-05-08 23:25 | 33.13618 | -117.08845 | 10999 ft | 360 kts | 169° |
| 2026-05-08 23:25 | 33.11234 | -117.08342 | 11010 ft | 334 kts | 169° |
| 2026-05-08 23:25 | 33.09019 | -117.07877 | 11017 ft | 312 kts | 169° |
| 2026-05-08 23:26 | 33.06909 | -117.07434 | 11017 ft | 305 kts | 169° |
| 2026-05-08 23:26 | 33.04801 | -117.07215 | 11022 ft | 305 kts | 186° |
| 2026-05-08 23:26 | 33.02792 | -117.08041 | 11018 ft | 303 kts | 214° |
| 2026-05-08 23:26 | 33.01346 | -117.09825 | 11020 ft | 301 kts | 237° |
| 2026-05-08 23:27 | 33.00264 | -117.11956 | 10982 ft | 299 kts | 240° |
| 2026-05-08 23:27 | 32.99227 | -117.14088 | 10994 ft | 299 kts | 241° |
| 2026-05-08 23:27 | 32.98190 | -117.16232 | 10993 ft | 299 kts | 241° |
| 2026-05-08 23:27 | 32.97152 | -117.18378 | 10990 ft | 300 kts | 241° |
| 2026-05-08 23:28 | 32.96115 | -117.20517 | 10991 ft | 299 kts | 240° |
| 2026-05-08 23:28 | 32.95063 | -117.22693 | 10992 ft | 300 kts | 241° |
| 2026-05-08 23:28 | 32.94111 | -117.24855 | 10986 ft | 298 kts | 251° |
| 2026-05-08 23:28 | 32.93868 | -117.27279 | 10924 ft | 299 kts | 278° |
| 2026-05-08 23:29 | 32.94591 | -117.29606 | 10591 ft | 296 kts | 305° |
| 2026-05-08 23:29 | 32.96096 | -117.31185 | 10227 ft | 290 kts | 333° |
| 2026-05-08 23:29 | 32.98031 | -117.31711 | 9885 ft | 288 kts | 1° |
| 2026-05-08 23:29 | 32.99948 | -117.31055 | 9524 ft | 288 kts | 30° |
| 2026-05-08 23:30 | 33.01349 | -117.29388 | 9166 ft | 289 kts | 59° |
| 2026-05-08 23:30 | 33.01873 | -117.27103 | 8977 ft | 289 kts | 90° |
| 2026-05-08 23:30 | 33.01606 | -117.24696 | 8932 ft | 291 kts | 100° |
| 2026-05-08 23:30 | 33.01210 | -117.22311 | 8958 ft | 293 kts | 101° |
| 2026-05-08 23:31 | 33.00804 | -117.19926 | 8961 ft | 294 kts | 101° |
| 2026-05-08 23:31 | 33.00268 | -117.17596 | 8957 ft | 292 kts | 114° |
| 2026-05-08 23:31 | 32.99111 | -117.15594 | 8975 ft | 294 kts | 136° |
| 2026-05-08 23:31 | 32.97402 | -117.14278 | 8961 ft | 294 kts | 158° |
| 2026-05-08 23:32 | 32.95462 | -117.13464 | 8778 ft | 294 kts | 161° |
| 2026-05-08 23:32 | 32.93550 | -117.12693 | 8581 ft | 292 kts | 161° |
| 2026-05-08 23:32 | 32.91611 | -117.11909 | 8375 ft | 290 kts | 161° |
| 2026-05-08 23:32 | 32.89714 | -117.11143 | 8183 ft | 282 kts | 162° |
| 2026-05-08 23:33 | 32.87889 | -117.10406 | 7952 ft | 273 kts | 162° |
| 2026-05-08 23:33 | 32.86066 | -117.09671 | 7575 ft | 270 kts | 162° |
| 2026-05-08 23:33 | 32.84304 | -117.08962 | 7209 ft | 264 kts | 162° |
| 2026-05-08 23:33 | 32.82583 | -117.08270 | 6884 ft | 256 kts | 162° |
| 2026-05-08 23:34 | 32.80917 | -117.07601 | 6553 ft | 249 kts | 162° |
| 2026-05-08 23:34 | 32.79308 | -117.06902 | 6218 ft | 242 kts | 153° |
| 2026-05-08 23:34 | 32.78004 | -117.05663 | 5898 ft | 241 kts | 127° |
| 2026-05-08 23:34 | 32.77272 | -117.03902 | 5669 ft | 233 kts | 105° |
| 2026-05-08 23:35 | 32.76837 | -117.02090 | 5511 ft | 225 kts | 104° |
| 2026-05-08 23:35 | 32.76410 | -117.00323 | 5343 ft | 217 kts | 105° |
| 2026-05-08 23:35 | 32.75990 | -116.98604 | 5154 ft | 212 kts | 107° |
| 2026-05-08 23:35 | 32.75327 | -116.97079 | 4980 ft | 206 kts | 129° |
| 2026-05-08 23:36 | 32.74242 | -116.96004 | 4748 ft | 202 kts | 152° |
| 2026-05-08 23:36 | 32.72933 | -116.95504 | 4423 ft | 197 kts | 174° |
| 2026-05-08 23:36 | 32.71574 | -116.95607 | 4241 ft | 196 kts | 195° |
| 2026-05-08 23:36 | 32.70335 | -116.96287 | 3948 ft | 195 kts | 218° |
| 2026-05-08 23:37 | 32.69432 | -116.97431 | 3741 ft | 189 kts | 239° |
| 2026-05-08 23:37 | 32.68952 | -116.98860 | 3500 ft | 188 kts | 260° |
| 2026-05-08 23:37 | 32.68911 | -117.00393 | 3275 ft | 185 kts | 280° |
| 2026-05-08 23:37 | 32.69227 | -117.01878 | 3003 ft | 184 kts | 288° |
| 2026-05-08 23:38 | 32.69569 | -117.03302 | 2769 ft | 174 kts | 287° |
| 2026-05-08 23:38 | 32.69884 | -117.04627 | 2613 ft | 160 kts | 287° |
| 2026-05-08 23:38 | 32.70184 | -117.05907 | 2415 ft | 163 kts | 287° |
| 2026-05-08 23:38 | 32.70493 | -117.07196 | 2147 ft | 155 kts | 286° |
| 2026-05-08 23:39 | 32.70762 | -117.08306 | 1953 ft | 131 kts | 286° |
| 2026-05-08 23:39 | 32.71016 | -117.09347 | 1733 ft | 128 kts | 286° |
| 2026-05-08 23:39 | 32.71257 | -117.10338 | 1552 ft | 125 kts | 286° |
| 2026-05-08 23:39 | 32.71500 | -117.11338 | 1347 ft | 124 kts | 286° |
| 2026-05-08 23:40 | 32.71738 | -117.12317 | 1160 ft | 123 kts | 286° |
| 2026-05-08 23:40 | 32.71967 | -117.13284 | 960 ft | 122 kts | 285° |
| 2026-05-08 23:40 | 32.72203 | -117.14253 | 783 ft | 120 kts | 287° |
| 2026-05-08 23:40 | 32.72446 | -117.15216 | 624 ft | 124 kts | 287° |
| 2026-05-08 23:41 | 32.72684 | -117.16183 | 439 ft | 118 kts | 285° |
| 2026-05-08 23:41 | 32.72913 | -117.17135 | 247 ft | 122 kts | 286° |
| 2026-05-08 23:41 | 32.73138 | -117.18066 | 67 ft | 110 kts | 285° |
| 2026-05-08 23:41 | 32.73326 | -117.18843 | 25 ft | 79 kts | 287° |
| 2026-05-08 23:42 | 32.73385 | -117.19073 | 25 ft | 8 kts | 307° |
| 2026-05-08 23:42 | 32.73432 | -117.19093 | 25 ft | 9 kts | 13° |
| 2026-05-08 23:42 | 32.73472 | -117.19065 | 25 ft | 0 kts | 47° |
| 2026-05-08 23:43 | 32.73486 | -117.19029 | 25 ft | 10 kts | 93° |
| 2026-05-08 23:43 | 32.73456 | -117.18908 | 25 ft | 17 kts | 104° |
| 2026-05-08 23:43 | 32.73416 | -117.18750 | 25 ft | 22 kts | 107° |
| 2026-05-08 23:44 | 32.73371 | -117.18562 | 25 ft | 15 kts | 106° |
| 2026-05-08 23:44 | 32.73336 | -117.18416 | 25 ft | 20 kts | 106° |
| 2026-05-08 23:44 | 32.73292 | -117.18237 | 26 ft | 24 kts | 106° |
| 2026-05-08 23:44 | 32.73249 | -117.18059 | 26 ft | 17 kts | 106° |
| 2026-05-08 23:45 | 32.73277 | -117.17973 | 26 ft | 13 kts | 14° |
| 2026-05-08 23:45 | 32.73359 | -117.17941 | 27 ft | 7 kts | 60° |
| 2026-05-08 23:45 | 32.73341 | -117.17888 | 27 ft | 6 kts | 110° |
| 2026-05-08 23:45 | 32.73345 | -117.17879 | 27 ft | 0 kts | 15° |